ENZVENBR

Guest
Details From ENZV - Stavanger Lufthavn Sola
To ENBR - Bergen Lufthavn Flesland
Flight Number -
Tags generated
Created
Modified
Stats Distance 86 nm / 159 km
Max Altitude 8,300 ft / 2,530 m
Waypoints 3
Social Downloads 0
Likes 0
Share VATSIM

Download

Looking for another format? Having issues loading an existing format? Contact us
Advertisement - Login to hide

Notes

Basic altitude profile: - Ascent Rate: 2500ft/min - Ascent Speed: 250kts - Cruise Altitude: 222ft - Cruise Speed: 222kts - Descent Rate: 222ft/min - Descent Speed: 222kts Options: - Use NATs: yes - Use PACOTS: yes - Use low airways: yes - Use high airways: yes

Route

ENZV OKLAN ENBR

ID Type Via Altitude Latitude Longitude Leg Dist Tot Dist Heading (true) Name
O ENZV APT - 0 ft / 0 m 58.88046˚ 5.63143˚ - 0 nm - Stavanger Lufthavn Sola
OKLAN FIX - 8,300 ft / 2,530 m 59.64917˚ 5.41417˚ 46 nm 46 nm 352° / 352° -
O ENBR APT - 0 ft / 0 m 60.29339˚ 5.21814˚ 39 nm 85 nm 351° / 351° Bergen Lufthavn Flesland

Altitude Profile

Advertisement - Login to hide

ENZV

Details ICAO ENZV (SVG)
Name Stavanger Lufthavn Sola
Region Norway
Timezone Europe/Oslo (UTC+1.0)
Stats Elevation 29 ft / 9 m (AMSL)
Location 58.880464° 5.631430°
Runways 2
Magnetic Variation 1.089° E

METAR

ENZV 110350Z 10005KT CAVOK M02/M06 Q0986

Decode

TAF

TAF ENZV 102300Z 1100/1124 12008KT 9999 FEW025 SCT080

Decode

Departure Runways

ID Width Length Bearing (true) Bearing (mag) Surface Threshold Offset Overrun Length
11 148 ft / 45 m 8,018 ft / 2,444 m 106.32° 105.23° Asphalt 328 ft / 100 m 0 ft / 0 m
18 197 ft / 60 m 8,372 ft / 2,552 m 179.12° 178.03° Asphalt 197 ft / 60 m 0 ft / 0 m
29 148 ft / 45 m 8,018 ft / 2,444 m 286.36° 285.27° Asphalt 502 ft / 153 m 0 ft / 0 m
36 197 ft / 60 m 8,372 ft / 2,552 m 359.12° 358.03° Asphalt 0 ft / 0 m 0 ft / 0 m

ENBR

Details ICAO ENBR (BGO)
Name Bergen Lufthavn Flesland
Region Norway
Timezone Europe/Oslo (UTC+1.0)
Stats Elevation 165 ft / 50 m (AMSL)
Location 60.293388° 5.218140°
Runways 1
Magnetic Variation 0.839° E

METAR

ENBR 110350Z 13008KT CAVOK 00/M06 Q0986 RMK WIND 1200FT 14017KT

Decode

TAF

TAF ENBR 102300Z 1100/1124 14008KT 9999 FEW015 BKN050

Decode

Destination Runways

ID Width Length Bearing (true) Bearing (mag) Surface Threshold Offset Overrun Length
17 148 ft / 45 m 9,793 ft / 2,985 m 170.56° 169.72° Asphalt 886 ft / 270 m 0 ft / 0 m
35 148 ft / 45 m 9,793 ft / 2,985 m 350.57° 349.73° Asphalt 886 ft / 270 m 0 ft / 0 m

Approach Navaids

Runway Type Ident Frequency Range Bearing (true) Bearing (mag) Slope Elevation
17 Localiser BR 109.90 MHz 18 nm / 33 km 170.56° 169.73° - 165 ft / 50 m (AMSL)
17 Glidescope BR 109.90 MHz 10 nm / 19 km 170.56° 169.73° 3.10° 165 ft / 50 m (AMSL)
35 Localiser BG 110.50 MHz 18 nm / 33 km 350.55° 349.71° - 165 ft / 50 m (AMSL)
35 Glidescope BG 110.50 MHz 10 nm / 19 km 350.56° 349.73° 3.00° 165 ft / 50 m (AMSL)

Popular Alternatives